S/y Mera — LL3622 — position and weather

sailwx.info

Track history (hours):
 
Tides and Currents Weather Stations Pressure Air Temp Water Temp Dewpoint Dewpoint Depression Visibility Wind Speed Wind Dir Waves Ship Positions

S/y Mera

Last reported at 2017-Nov-05 14:47 UTC. Time now 2017-Nov-25 09:55 UTC.
Position N 27°55' W 015°19'.
Warning: this ship's position is 19 days out of date.

Length 15 m.

Type: Sailing vessel. MMSI: 257626940.

Date/timePositionNaut miles runAvg speedWind from/ knotsBaromVisibWave heightAir tempDewpointWater temp
2017-Nov-05 14:47N 27°55' W 015°19'2 7.3
2017-Nov-05 14:28N 27°57' W 015°20'4 7.4
2017-Nov-05 13:59N 28°01' W 015°21'3 6.6
2017-Nov-05 13:28N 28°04' W 015°23'3 6.0
2017-Nov-05 12:57N 28°06' W 015°25'1 2.2
2017-Nov-05 12:28N 28°07' W 015°25'1 1.6
2017-Nov-05 11:55N 28°07' W 015°24'1 2.4
2017-Nov-05 11:30N 28°07' W 015°25'0 0.0
2017-Nov-03 19:06N 28°08' W 015°26'0 0.0
2017-Nov-02 19:03N 28°08' W 015°26'0 0.0
2017-Nov-02 18:45N 28°08' W 015°26'0 0.0
2017-Nov-02 18:30N 28°08' W 015°26'0 0.0
2017-Nov-02 18:00N 28°08' W 015°26'0 0.0
2017-Nov-02 17:30N 28°08' W 015°26'0 0.0
2017-Nov-02 16:51N 28°08' W 015°26'0 0.0
2017-Nov-02 16:30N 28°08' W 015°26'0 0.0
2017-Nov-02 15:51N 28°08' W 015°26'0 0.0
2017-Nov-02 15:21N 28°08' W 015°26'0 0.0
2017-Nov-02 14:54N 28°08' W 015°26'0 0.0
2017-Nov-02 14:24N 28°08' W 015°26'0 0.0
2017-Nov-02 13:54N 28°08' W 015°26'0 0.0
2017-Nov-02 13:24N 28°08' W 015°26'0 0.0
2017-Nov-02 12:54N 28°08' W 015°26'0 0.0
2017-Nov-02 12:27N 28°08' W 015°26'0 0.0
2017-Nov-02 11:54N 28°08' W 015°26'0 0.0
2017-Nov-02 11:27N 28°08' W 015°26'0 0.0
2017-Nov-01 19:25N 28°08' W 015°26'1 2.7
2017-Nov-01 18:59N 28°07' W 015°24'4 6.9
2017-Nov-01 18:29N 28°11' W 015°24'  
Track history (hours):
 
Tides and Currents Weather Stations Pressure Air Temp Water Temp Dewpoint Dewpoint Depression Visibility Wind Speed Wind Dir Waves Ship Positions

S/y Mera

Last reported at 2017-Nov-05 14:47 UTC. Time now 2017-Nov-25 09:55 UTC.
Position N 27°55' W 015°19'.
Warning: this ship's position is 19 days out of date.

Length 15 m.

Type: Sailing vessel. MMSI: 257626940.

Date/timePositionNaut miles runAvg speedWind from/ knotsBaromVisibWave heightAir tempDewpointWater temp
2017-Nov-05 14:47N 27°55' W 015°19'2 7.3
2017-Nov-05 14:28N 27°57' W 015°20'4 7.4
2017-Nov-05 13:59N 28°01' W 015°21'3 6.6
2017-Nov-05 13:28N 28°04' W 015°23'3 6.0
2017-Nov-05 12:57N 28°06' W 015°25'1 2.2
2017-Nov-05 12:28N 28°07' W 015°25'1 1.6
2017-Nov-05 11:55N 28°07' W 015°24'1 2.4
2017-Nov-05 11:30N 28°07' W 015°25'0 0.0
2017-Nov-03 19:06N 28°08' W 015°26'0 0.0
2017-Nov-02 19:03N 28°08' W 015°26'0 0.0
2017-Nov-02 18:45N 28°08' W 015°26'0 0.0
2017-Nov-02 18:30N 28°08' W 015°26'0 0.0
2017-Nov-02 18:00N 28°08' W 015°26'0 0.0
2017-Nov-02 17:30N 28°08' W 015°26'0 0.0
2017-Nov-02 16:51N 28°08' W 015°26'0 0.0
2017-Nov-02 16:30N 28°08' W 015°26'0 0.0
2017-Nov-02 15:51N 28°08' W 015°26'0 0.0
2017-Nov-02 15:21N 28°08' W 015°26'0 0.0
2017-Nov-02 14:54N 28°08' W 015°26'0 0.0
2017-Nov-02 14:24N 28°08' W 015°26'0 0.0
2017-Nov-02 13:54N 28°08' W 015°26'0 0.0
2017-Nov-02 13:24N 28°08' W 015°26'0 0.0
2017-Nov-02 12:54N 28°08' W 015°26'0 0.0
2017-Nov-02 12:27N 28°08' W 015°26'0 0.0
2017-Nov-02 11:54N 28°08' W 015°26'0 0.0
2017-Nov-02 11:27N 28°08' W 015°26'0 0.0
2017-Nov-01 19:25N 28°08' W 015°26'1 2.7
2017-Nov-01 18:59N 28°07' W 015°24'4 6.9
2017-Nov-01 18:29N 28°11' W 015°24'  

Dump ship's entire track history